sensor_id;sensor_type;location;lat;lon;timestamp;pressure;altitude;pressure_sealevel;temperature;humidity
61761;BME280;47664;51.660;-0.100;2023-05-16T00:01:01;101687.36;;;11.31;47.93
61761;BME280;47664;51.660;-0.100;2023-05-16T00:03:28;101686.04;;;10.15;48.40
61761;BME280;47664;51.660;-0.100;2023-05-16T00:05:55;101686.05;;;11.14;48.60
61761;BME280;47664;51.660;-0.100;2023-05-16T00:08:23;101682.99;;;10.79;48.38
61761;BME280;47664;51.660;-0.100;2023-05-16T00:10:50;101680.38;;;11.31;48.19
61761;BME280;47664;51.660;-0.100;2023-05-16T00:13:17;101680.25;;;11.33;48.20
61761;BME280;47664;51.660;-0.100;2023-05-16T00:15:44;101680.31;;;10.90;48.64
61761;BME280;47664;51.660;-0.100;2023-05-16T00:18:11;101681.54;;;11.09;48.60
61761;BME280;47664;51.660;-0.100;2023-05-16T00:20:38;101682.33;;;10.90;48.73
61761;BME280;47664;51.660;-0.100;2023-05-16T00:23:05;101683.51;;;11.26;48.70
61761;BME280;47664;51.660;-0.100;2023-05-16T00:25:32;101680.21;;;10.74;48.67
61761;BME280;47664;51.660;-0.100;2023-05-16T00:27:59;101676.69;;;11.56;48.70
61761;BME280;47664;51.660;-0.100;2023-05-16T00:30:26;101672.55;;;10.84;48.84
61761;BME280;47664;51.660;-0.100;2023-05-16T00:32:54;101672.98;;;11.15;48.62
61761;BME280;47664;51.660;-0.100;2023-05-16T00:35:22;101674.28;;;11.06;48.99
61761;BME280;47664;51.660;-0.100;2023-05-16T00:37:49;101677.35;;;11.18;48.72
61761;BME280;47664;51.660;-0.100;2023-05-16T00:40:16;101678.12;;;11.26;48.52
61761;BME280;47664;51.660;-0.100;2023-05-16T00:42:43;101680.58;;;11.14;48.62
61761;BME280;47664;51.660;-0.100;2023-05-16T00:45:10;101684.22;;;11.02;48.64
61761;BME280;47664;51.660;-0.100;2023-05-16T00:47:38;101684.32;;;11.16;48.45
61761;BME280;47664;51.660;-0.100;2023-05-16T00:50:06;101683.19;;;11.17;48.62
61761;BME280;47664;51.660;-0.100;2023-05-16T00:52:33;101682.07;;;10.39;48.90
61761;BME280;47664;51.660;-0.100;2023-05-16T00:55:00;101683.45;;;11.18;48.69
61761;BME280;47664;51.660;-0.100;2023-05-16T00:57:28;101681.06;;;10.65;48.90
61761;BME280;47664;51.660;-0.100;2023-05-16T00:59:56;101683.81;;;10.93;48.96
61761;BME280;47664;51.660;-0.100;2023-05-16T01:02:23;101683.34;;;10.88;48.76
61761;BME280;47664;51.660;-0.100;2023-05-16T01:04:50;101682.27;;;11.23;48.71
61761;BME280;47664;51.660;-0.100;2023-05-16T01:07:18;101679.63;;;11.20;48.43
61761;BME280;47664;51.660;-0.100;2023-05-16T01:09:45;101681.16;;;11.07;48.74
61761;BME280;47664;51.660;-0.100;2023-05-16T01:12:17;101682.38;;;11.27;49.01
61761;BME280;47664;51.660;-0.100;2023-05-16T01:14:53;101685.41;;;10.78;49.43
61761;BME280;47664;51.660;-0.100;2023-05-16T01:17:27;101684.49;;;10.64;48.77
61761;BME280;47664;51.660;-0.100;2023-05-16T01:20:04;101688.70;;;11.14;48.86
61761;BME280;47664;51.660;-0.100;2023-05-16T01:22:43;101684.10;;;10.47;48.66
61761;BME280;47664;51.660;-0.100;2023-05-16T01:25:21;101682.32;;;10.95;48.68
61761;BME280;47664;51.660;-0.100;2023-05-16T01:27:53;101678.51;;;11.11;48.29
61761;BME280;47664;51.660;-0.100;2023-05-16T01:30:21;101677.64;;;11.09;48.19
61761;BME280;47664;51.660;-0.100;2023-05-16T01:32:48;101675.47;;;11.10;48.62
61761;BME280;47664;51.660;-0.100;2023-05-16T01:35:16;101672.60;;;11.41;48.55
61761;BME280;47664;51.660;-0.100;2023-05-16T01:37:48;101674.74;;;11.10;48.62
61761;BME280;47664;51.660;-0.100;2023-05-16T01:40:25;101671.93;;;11.08;48.65
61761;BME280;47664;51.660;-0.100;2023-05-16T01:42:59;101671.99;;;11.17;48.52
61761;BME280;47664;51.660;-0.100;2023-05-16T01:45:32;101672.41;;;10.25;48.32
61761;BME280;47664;51.660;-0.100;2023-05-16T01:48:05;101672.04;;;11.04;48.63
61761;BME280;47664;51.660;-0.100;2023-05-16T01:50:37;101673.85;;;10.27;48.52
61761;BME280;47664;51.660;-0.100;2023-05-16T01:53:06;101672.52;;;10.93;48.84
61761;BME280;47664;51.660;-0.100;2023-05-16T01:55:45;101674.79;;;10.10;48.70
61761;BME280;47664;51.660;-0.100;2023-05-16T01:58:14;101669.16;;;10.83;49.01
61761;BME280;47664;51.660;-0.100;2023-05-16T02:00:42;101668.18;;;10.43;48.84
61761;BME280;47664;51.660;-0.100;2023-05-16T02:03:09;101665.06;;;10.62;49.24
61761;BME280;47664;51.660;-0.100;2023-05-16T02:05:36;101666.05;;;10.20;49.22
61761;BME280;47664;51.660;-0.100;2023-05-16T02:08:03;101665.23;;;10.81;49.34
61761;BME280;47664;51.660;-0.100;2023-05-16T02:10:31;101669.45;;;9.63;49.54
61761;BME280;47664;51.660;-0.100;2023-05-16T02:12:58;101669.16;;;10.26;49.54
61761;BME280;47664;51.660;-0.100;2023-05-16T02:15:25;101673.71;;;10.20;49.32
61761;BME280;47664;51.660;-0.100;2023-05-16T02:17:53;101671.75;;;10.74;49.12
61761;BME280;47664;51.660;-0.100;2023-05-16T02:20:21;101673.49;;;10.36;49.36
61761;BME280;47664;51.660;-0.100;2023-05-16T02:22:48;101671.59;;;10.50;49.54
61761;BME280;47664;51.660;-0.100;2023-05-16T02:25:16;101670.55;;;10.39;49.69
61761;BME280;47664;51.660;-0.100;2023-05-16T02:27:43;101670.01;;;10.17;49.55
61761;BME280;47664;51.660;-0.100;2023-05-16T02:30:10;101672.76;;;10.68;49.63
61761;BME280;47664;51.660;-0.100;2023-05-16T02:32:37;101672.30;;;9.93;49.57
61761;BME280;47664;51.660;-0.100;2023-05-16T02:35:06;101673.80;;;10.28;49.88
61761;BME280;47664;51.660;-0.100;2023-05-16T02:37:33;101667.67;;;9.55;49.82
61761;BME280;47664;51.660;-0.100;2023-05-16T02:40:00;101667.80;;;10.61;49.55
61761;BME280;47664;51.660;-0.100;2023-05-16T02:42:27;101666.86;;;9.85;49.59
61761;BME280;47664;51.660;-0.100;2023-05-16T02:44:55;101667.12;;;10.41;49.85
61761;BME280;47664;51.660;-0.100;2023-05-16T02:47:22;101664.44;;;10.04;49.75
61761;BME280;47664;51.660;-0.100;2023-05-16T02:49:50;101668.79;;;9.89;49.85
61761;BME280;47664;51.660;-0.100;2023-05-16T02:52:17;101668.32;;;10.26;50.02
61761;BME280;47664;51.660;-0.100;2023-05-16T02:54:44;101673.04;;;9.82;50.93
61761;BME280;47664;51.660;-0.100;2023-05-16T02:57:11;101676.89;;;9.86;51.33
61761;BME280;47664;51.660;-0.100;2023-05-16T02:59:38;101674.98;;;9.81;51.47
61761;BME280;47664;51.660;-0.100;2023-05-16T03:02:05;101673.17;;;9.78;51.86
61761;BME280;47664;51.660;-0.100;2023-05-16T03:04:32;101670.54;;;9.33;51.68
61761;BME280;47664;51.660;-0.100;2023-05-16T03:07:00;101671.64;;;9.95;51.84
61761;BME280;47664;51.660;-0.100;2023-05-16T03:09:27;101671.38;;;9.17;51.95
61761;BME280;47664;51.660;-0.100;2023-05-16T03:11:55;101670.17;;;9.53;52.20
61761;BME280;47664;51.660;-0.100;2023-05-16T03:14:22;101668.06;;;9.79;51.74
61761;BME280;47664;51.660;-0.100;2023-05-16T03:16:50;101670.75;;;9.97;51.86
61761;BME280;47664;51.660;-0.100;2023-05-16T03:19:17;101677.68;;;9.84;52.23
61761;BME280;47664;51.660;-0.100;2023-05-16T03:21:44;101672.73;;;9.37;52.33
61761;BME280;47664;51.660;-0.100;2023-05-16T03:24:11;101672.02;;;9.76;52.79
61761;BME280;47664;51.660;-0.100;2023-05-16T03:26:38;101668.15;;;9.50;52.75
61761;BME280;47664;51.660;-0.100;2023-05-16T03:29:05;101663.83;;;10.03;52.20
61761;BME280;47664;51.660;-0.100;2023-05-16T03:31:32;101661.44;;;8.96;52.57
61761;BME280;47664;51.660;-0.100;2023-05-16T03:33:59;101661.14;;;9.99;52.45
61761;BME280;47664;51.660;-0.100;2023-05-16T03:36:27;101662.91;;;9.24;52.27
61761;BME280;47664;51.660;-0.100;2023-05-16T03:38:54;101664.24;;;9.80;52.25
61761;BME280;47664;51.660;-0.100;2023-05-16T03:41:22;101663.31;;;9.52;52.22
61761;BME280;47664;51.660;-0.100;2023-05-16T03:43:49;101659.56;;;9.94;51.81
61761;BME280;47664;51.660;-0.100;2023-05-16T03:46:17;101659.03;;;9.96;51.69
61761;BME280;47664;51.660;-0.100;2023-05-16T03:48:44;101662.34;;;9.90;51.81
61761;BME280;47664;51.660;-0.100;2023-05-16T03:51:11;101663.46;;;9.85;51.82
61761;BME280;47664;51.660;-0.100;2023-05-16T03:53:38;101666.91;;;9.37;51.90
61761;BME280;47664;51.660;-0.100;2023-05-16T03:56:05;101670.05;;;9.88;51.82
61761;BME280;47664;51.660;-0.100;2023-05-16T03:58:33;101671.46;;;9.40;51.84
61761;BME280;47664;51.660;-0.100;2023-05-16T04:00:59;101676.07;;;9.85;51.82
61761;BME280;47664;51.660;-0.100;2023-05-16T04:03:27;101678.08;;;9.53;51.49
61761;BME280;47664;51.660;-0.100;2023-05-16T04:05:55;101679.69;;;9.90;51.38
61761;BME280;47664;51.660;-0.100;2023-05-16T04:08:22;101680.75;;;9.31;51.75
61761;BME280;47664;51.660;-0.100;2023-05-16T04:10:49;101681.31;;;9.70;51.76
61761;BME280;47664;51.660;-0.100;2023-05-16T04:13:16;101683.57;;;9.68;51.89
61761;BME280;47664;51.660;-0.100;2023-05-16T04:15:43;101685.30;;;9.89;51.73
61761;BME280;47664;51.660;-0.100;2023-05-16T04:18:11;101687.32;;;9.84;51.87
61761;BME280;47664;51.660;-0.100;2023-05-16T04:20:40;101683.98;;;9.32;51.62
61761;BME280;47664;51.660;-0.100;2023-05-16T04:23:08;101687.63;;;9.56;51.96
61761;BME280;47664;51.660;-0.100;2023-05-16T04:25:35;101684.56;;;8.91;51.92
61761;BME280;47664;51.660;-0.100;2023-05-16T04:28:03;101685.27;;;9.77;51.66
61761;BME280;47664;51.660;-0.100;2023-05-16T04:30:31;101689.75;;;9.06;51.70
61761;BME280;47664;51.660;-0.100;2023-05-16T04:32:58;101687.31;;;9.92;51.23
61761;BME280;47664;51.660;-0.100;2023-05-16T04:35:28;101687.21;;;9.25;51.62
61761;BME280;47664;51.660;-0.100;2023-05-16T04:37:56;101687.29;;;9.65;51.62
61761;BME280;47664;51.660;-0.100;2023-05-16T04:40:23;101688.80;;;9.50;51.87
61761;BME280;47664;51.660;-0.100;2023-05-16T04:42:51;101685.84;;;9.55;52.12
61761;BME280;47664;51.660;-0.100;2023-05-16T04:45:18;101685.21;;;9.63;52.29
61761;BME280;47664;51.660;-0.100;2023-05-16T04:47:46;101687.32;;;9.39;52.37
61761;BME280;47664;51.660;-0.100;2023-05-16T04:50:13;101688.35;;;9.69;52.28
61761;BME280;47664;51.660;-0.100;2023-05-16T04:52:40;101685.41;;;9.27;52.39
61761;BME280;47664;51.660;-0.100;2023-05-16T04:55:08;101690.00;;;9.55;52.52
61761;BME280;47664;51.660;-0.100;2023-05-16T04:57:36;101690.79;;;9.03;52.78
61761;BME280;47664;51.660;-0.100;2023-05-16T05:00:05;101690.82;;;9.62;52.45
61761;BME280;47664;51.660;-0.100;2023-05-16T05:02:32;101689.38;;;9.18;52.61
61761;BME280;47664;51.660;-0.100;2023-05-16T05:04:59;101688.08;;;9.54;52.75
61761;BME280;47664;51.660;-0.100;2023-05-16T05:07:27;101685.84;;;9.06;53.16
61761;BME280;47664;51.660;-0.100;2023-05-16T05:09:54;101687.77;;;9.00;53.29
61761;BME280;47664;51.660;-0.100;2023-05-16T05:12:22;101690.16;;;9.01;53.67
61761;BME280;47664;51.660;-0.100;2023-05-16T05:14:49;101691.76;;;9.55;53.43
61761;BME280;47664;51.660;-0.100;2023-05-16T05:17:18;101693.73;;;9.60;53.26
61761;BME280;47664;51.660;-0.100;2023-05-16T05:19:45;101694.02;;;9.44;53.08
61761;BME280;47664;51.660;-0.100;2023-05-16T05:22:11;101695.38;;;9.68;53.07
61761;BME280;47664;51.660;-0.100;2023-05-16T05:24:38;101696.89;;;9.33;53.15
61761;BME280;47664;51.660;-0.100;2023-05-16T05:27:05;101700.72;;;9.41;53.19
61761;BME280;47664;51.660;-0.100;2023-05-16T05:29:32;101707.08;;;8.72;53.50
61761;BME280;47664;51.660;-0.100;2023-05-16T05:31:59;101707.02;;;9.55;53.57
61761;BME280;47664;51.660;-0.100;2023-05-16T05:34:27;101710.46;;;8.92;53.28
61761;BME280;47664;51.660;-0.100;2023-05-16T05:36:54;101713.95;;;9.04;54.30
61761;BME280;47664;51.660;-0.100;2023-05-16T05:39:22;101714.96;;;8.77;54.64
61761;BME280;47664;51.660;-0.100;2023-05-16T05:41:49;101718.50;;;9.53;54.04
61761;BME280;47664;51.660;-0.100;2023-05-16T05:44:16;101721.85;;;9.43;54.57
61761;BME280;47664;51.660;-0.100;2023-05-16T05:46:43;101720.77;;;9.22;54.47
61761;BME280;47664;51.660;-0.100;2023-05-16T05:49:11;101722.57;;;9.89;53.94
61761;BME280;47664;51.660;-0.100;2023-05-16T05:51:38;101729.24;;;9.64;53.23
61761;BME280;47664;51.660;-0.100;2023-05-16T05:54:05;101732.28;;;10.05;53.22
61761;BME280;47664;51.660;-0.100;2023-05-16T05:56:35;101731.06;;;8.98;51.81
61761;BME280;47664;51.660;-0.100;2023-05-16T05:59:06;101729.41;;;9.75;50.25
61761;BME280;47664;51.660;-0.100;2023-05-16T06:01:35;101733.62;;;10.09;48.52
61761;BME280;47664;51.660;-0.100;2023-05-16T06:04:05;101735.32;;;10.30;48.16
61761;BME280;47664;51.660;-0.100;2023-05-16T06:06:36;101739.43;;;10.53;47.54
61761;BME280;47664;51.660;-0.100;2023-05-16T06:09:06;101740.21;;;10.55;47.82
61761;BME280;47664;51.660;-0.100;2023-05-16T06:11:37;101743.36;;;10.35;47.99
61761;BME280;47664;51.660;-0.100;2023-05-16T06:14:07;101741.98;;;10.51;47.95
61761;BME280;47664;51.660;-0.100;2023-05-16T06:16:37;101743.29;;;10.45;47.82
61761;BME280;47664;51.660;-0.100;2023-05-16T06:19:07;101747.27;;;10.48;47.93
61761;BME280;47664;51.660;-0.100;2023-05-16T06:21:38;101750.04;;;10.42;46.95
61761;BME280;47664;51.660;-0.100;2023-05-16T06:24:06;101752.36;;;10.89;47.01
61761;BME280;47664;51.660;-0.100;2023-05-16T06:26:37;101754.82;;;10.84;46.95
61761;BME280;47664;51.660;-0.100;2023-05-16T06:29:07;101758.46;;;11.15;47.09
61761;BME280;47664;51.660;-0.100;2023-05-16T06:31:36;101759.70;;;10.29;47.75
61761;BME280;47664;51.660;-0.100;2023-05-16T06:34:06;101761.85;;;11.16;47.11
61761;BME280;47664;51.660;-0.100;2023-05-16T06:36:37;101763.51;;;10.87;46.32
61761;BME280;47664;51.660;-0.100;2023-05-16T06:39:07;101760.77;;;11.84;45.91
61761;BME280;47664;51.660;-0.100;2023-05-16T06:41:38;101764.59;;;11.21;46.29
61761;BME280;47664;51.660;-0.100;2023-05-16T06:44:07;101765.77;;;11.22;46.55
61761;BME280;47664;51.660;-0.100;2023-05-16T06:46:37;101765.31;;;11.40;46.18
61761;BME280;47664;51.660;-0.100;2023-05-16T06:49:07;101765.73;;;11.36;46.20
61761;BME280;47664;51.660;-0.100;2023-05-16T06:51:36;101762.32;;;11.25;45.43
61761;BME280;47664;51.660;-0.100;2023-05-16T06:54:06;101760.81;;;11.74;45.11
61761;BME280;47664;51.660;-0.100;2023-05-16T06:56:37;101757.41;;;11.09;45.26
61761;BME280;47664;51.660;-0.100;2023-05-16T06:59:07;101763.77;;;11.53;45.92
61761;BME280;47664;51.660;-0.100;2023-05-16T07:01:36;101763.61;;;11.08;45.96
61761;BME280;47664;51.660;-0.100;2023-05-16T07:04:06;101762.00;;;11.65;44.85
61761;BME280;47664;51.660;-0.100;2023-05-16T07:06:37;101764.89;;;11.77;44.33
61761;BME280;47664;51.660;-0.100;2023-05-16T07:09:07;101765.18;;;12.20;44.32
61761;BME280;47664;51.660;-0.100;2023-05-16T07:11:37;101767.17;;;12.46;43.82
61761;BME280;47664;51.660;-0.100;2023-05-16T07:14:06;101765.12;;;11.78;44.33
61761;BME280;47664;51.660;-0.100;2023-05-16T07:16:36;101765.60;;;11.64;44.13
61761;BME280;47664;51.660;-0.100;2023-05-16T07:19:07;101766.50;;;11.82;44.42
61761;BME280;47664;51.660;-0.100;2023-05-16T07:21:38;101770.14;;;11.92;43.35
61761;BME280;47664;51.660;-0.100;2023-05-16T07:24:07;101771.33;;;12.57;43.61
61761;BME280;47664;51.660;-0.100;2023-05-16T07:26:36;101771.67;;;12.01;43.89
61761;BME280;47664;51.660;-0.100;2023-05-16T07:29:05;101776.47;;;12.76;42.06
61761;BME280;47664;51.660;-0.100;2023-05-16T07:31:36;101778.53;;;12.10;42.65
61761;BME280;47664;51.660;-0.100;2023-05-16T07:34:06;101778.97;;;12.69;42.32
61761;BME280;47664;51.660;-0.100;2023-05-16T07:36:37;101779.31;;;12.00;42.87
61761;BME280;47664;51.660;-0.100;2023-05-16T07:39:07;101782.29;;;12.25;43.30
61761;BME280;47664;51.660;-0.100;2023-05-16T07:41:36;101784.90;;;12.79;41.33
61761;BME280;47664;51.660;-0.100;2023-05-16T07:44:07;101781.71;;;13.27;40.70
61761;BME280;47664;51.660;-0.100;2023-05-16T07:46:36;101782.21;;;13.78;39.85
61761;BME280;47664;51.660;-0.100;2023-05-16T07:49:07;101785.82;;;13.00;41.65
61761;BME280;47664;51.660;-0.100;2023-05-16T07:51:38;101785.28;;;12.48;41.49
61761;BME280;47664;51.660;-0.100;2023-05-16T07:54:07;101785.07;;;12.66;41.19
61761;BME280;47664;51.660;-0.100;2023-05-16T07:56:38;101785.93;;;12.36;40.74
61761;BME280;47664;51.660;-0.100;2023-05-16T07:59:07;101787.26;;;13.09;40.58
61761;BME280;47664;51.660;-0.100;2023-05-16T08:01:37;101783.52;;;12.77;39.93
61761;BME280;47664;51.660;-0.100;2023-05-16T08:04:06;101786.32;;;13.70;38.81
61761;BME280;47664;51.660;-0.100;2023-05-16T08:06:38;101786.63;;;13.05;39.25
61761;BME280;47664;51.660;-0.100;2023-05-16T08:09:07;101784.55;;;13.67;38.88
61761;BME280;47664;51.660;-0.100;2023-05-16T08:11:37;101782.79;;;13.03;39.47
61761;BME280;47664;51.660;-0.100;2023-05-16T08:14:06;101783.93;;;12.76;39.57
61761;BME280;47664;51.660;-0.100;2023-05-16T08:16:37;101782.13;;;13.52;38.80
61761;BME280;47664;51.660;-0.100;2023-05-16T08:19:07;101784.19;;;13.98;39.23
61761;BME280;47664;51.660;-0.100;2023-05-16T08:21:38;101787.22;;;12.76;39.28
61761;BME280;47664;51.660;-0.100;2023-05-16T08:24:07;101785.98;;;13.45;39.99
61761;BME280;47664;51.660;-0.100;2023-05-16T08:26:38;101783.80;;;12.76;39.96
61761;BME280;47664;51.660;-0.100;2023-05-16T08:29:07;101786.40;;;13.57;38.68
61761;BME280;47664;51.660;-0.100;2023-05-16T08:31:38;101784.86;;;13.06;39.86
61761;BME280;47664;51.660;-0.100;2023-05-16T08:34:06;101786.90;;;13.14;40.47
61761;BME280;47664;51.660;-0.100;2023-05-16T08:36:36;101782.27;;;13.51;38.54
61761;BME280;47664;51.660;-0.100;2023-05-16T08:39:06;101780.15;;;14.20;38.27
61761;BME280;47664;51.660;-0.100;2023-05-16T08:41:37;101779.47;;;13.67;37.97
61761;BME280;47664;51.660;-0.100;2023-05-16T08:44:07;101773.12;;;13.81;38.48
61761;BME280;47664;51.660;-0.100;2023-05-16T08:46:40;101774.33;;;13.59;38.31
61761;BME280;47664;51.660;-0.100;2023-05-16T08:49:12;101775.75;;;14.44;37.95
61761;BME280;47664;51.660;-0.100;2023-05-16T08:51:42;101774.92;;;14.45;37.52
61761;BME280;47664;51.660;-0.100;2023-05-16T08:54:14;101776.18;;;14.98;36.59
61761;BME280;47664;51.660;-0.100;2023-05-16T08:56:45;101779.20;;;14.90;36.03
61761;BME280;47664;51.660;-0.100;2023-05-16T08:59:15;101779.29;;;15.29;34.38
61761;BME280;47664;51.660;-0.100;2023-05-16T09:01:44;101779.75;;;15.37;33.49
61761;BME280;47664;51.660;-0.100;2023-05-16T09:04:15;101783.21;;;15.16;34.17
61761;BME280;47664;51.660;-0.100;2023-05-16T09:06:44;101783.53;;;15.59;33.34
61761;BME280;47664;51.660;-0.100;2023-05-16T09:09:13;101776.05;;;15.80;32.69
61761;BME280;47664;51.660;-0.100;2023-05-16T09:11:43;101777.83;;;15.54;33.26
61761;BME280;47664;51.660;-0.100;2023-05-16T09:14:12;101778.95;;;15.98;33.35
61761;BME280;47664;51.660;-0.100;2023-05-16T09:16:44;101785.39;;;15.14;33.50
61761;BME280;47664;51.660;-0.100;2023-05-16T09:19:14;101787.98;;;15.74;33.93
61761;BME280;47664;51.660;-0.100;2023-05-16T09:21:41;101786.07;;;16.36;34.82
61761;BME280;47664;51.660;-0.100;2023-05-16T09:24:09;101788.06;;;16.45;36.28
61761;BME280;47664;51.660;-0.100;2023-05-16T09:26:38;101793.17;;;14.88;36.39
61761;BME280;47664;51.660;-0.100;2023-05-16T09:29:10;101796.97;;;15.50;36.41
61761;BME280;47664;51.660;-0.100;2023-05-16T09:31:37;101791.54;;;15.79;36.26
61761;BME280;47664;51.660;-0.100;2023-05-16T09:34:07;101788.68;;;16.00;35.30
61761;BME280;47664;51.660;-0.100;2023-05-16T09:36:34;101787.13;;;15.60;35.82
61761;BME280;47664;51.660;-0.100;2023-05-16T09:39:01;101785.19;;;16.12;36.39
61761;BME280;47664;51.660;-0.100;2023-05-16T09:41:32;101784.16;;;15.56;37.26
61761;BME280;47664;51.660;-0.100;2023-05-16T09:44:03;101785.46;;;15.58;37.56
61761;BME280;47664;51.660;-0.100;2023-05-16T09:46:32;101787.78;;;15.13;36.58
61761;BME280;47664;51.660;-0.100;2023-05-16T09:48:59;101785.30;;;16.41;36.22
61761;BME280;47664;51.660;-0.100;2023-05-16T09:51:27;101788.75;;;15.85;36.67
61761;BME280;47664;51.660;-0.100;2023-05-16T09:53:57;101788.85;;;16.63;35.87
61761;BME280;47664;51.660;-0.100;2023-05-16T09:56:25;101788.73;;;16.81;32.67
61761;BME280;47664;51.660;-0.100;2023-05-16T09:58:52;101787.47;;;17.03;33.28
61761;BME280;47664;51.660;-0.100;2023-05-16T10:01:20;101791.81;;;16.52;34.75
61761;BME280;47664;51.660;-0.100;2023-05-16T10:03:47;101788.37;;;15.81;34.77
61761;BME280;47664;51.660;-0.100;2023-05-16T10:06:14;101784.50;;;16.97;35.08
61761;BME280;47664;51.660;-0.100;2023-05-16T10:08:43;101785.79;;;16.62;35.16
61761;BME280;47664;51.660;-0.100;2023-05-16T10:11:11;101785.36;;;16.18;35.90
61761;BME280;47664;51.660;-0.100;2023-05-16T10:13:39;101787.89;;;15.30;37.57
61761;BME280;47664;51.660;-0.100;2023-05-16T10:16:10;101783.29;;;16.18;37.24
61761;BME280;47664;51.660;-0.100;2023-05-16T10:18:39;101783.67;;;16.53;35.97
61761;BME280;47664;51.660;-0.100;2023-05-16T10:21:09;101784.15;;;17.06;35.37
61761;BME280;47664;51.660;-0.100;2023-05-16T10:23:41;101782.57;;;16.49;34.60
61761;BME280;47664;51.660;-0.100;2023-05-16T10:26:09;101785.73;;;17.19;35.11
61761;BME280;47664;51.660;-0.100;2023-05-16T10:28:36;101786.00;;;17.12;33.54
61761;BME280;47664;51.660;-0.100;2023-05-16T10:31:05;101777.25;;;18.30;31.43
61761;BME280;47664;51.660;-0.100;2023-05-16T10:33:35;101774.67;;;17.91;31.48
61761;BME280;47664;51.660;-0.100;2023-05-16T10:36:03;101777.83;;;17.86;33.68
61761;BME280;47664;51.660;-0.100;2023-05-16T10:38:31;101775.89;;;17.88;31.49
61761;BME280;47664;51.660;-0.100;2023-05-16T10:40:58;101770.31;;;18.09;32.34
61761;BME280;47664;51.660;-0.100;2023-05-16T10:43:28;101761.94;;;17.02;32.73
61761;BME280;47664;51.660;-0.100;2023-05-16T10:45:56;101767.39;;;16.50;34.79
61761;BME280;47664;51.660;-0.100;2023-05-16T10:48:33;101764.22;;;16.12;34.31
61761;BME280;47664;51.660;-0.100;2023-05-16T10:51:02;101767.42;;;16.43;35.07
61761;BME280;47664;51.660;-0.100;2023-05-16T10:53:32;101768.99;;;15.36;35.20
61761;BME280;47664;51.660;-0.100;2023-05-16T10:56:08;101767.66;;;15.45;36.46
61761;BME280;47664;51.660;-0.100;2023-05-16T10:58:42;101769.28;;;14.68;36.28
61761;BME280;47664;51.660;-0.100;2023-05-16T11:01:28;101767.16;;;15.47;37.54
61761;BME280;47664;51.660;-0.100;2023-05-16T11:04:05;101769.75;;;15.41;35.37
61761;BME280;47664;51.660;-0.100;2023-05-16T11:06:34;101767.99;;;15.43;35.37
61761;BME280;47664;51.660;-0.100;2023-05-16T11:09:20;101770.05;;;16.43;34.36
61761;BME280;47664;51.660;-0.100;2023-05-16T11:11:55;101779.34;;;16.79;33.53
61761;BME280;47664;51.660;-0.100;2023-05-16T11:14:23;101774.16;;;15.52;35.35
61761;BME280;47664;51.660;-0.100;2023-05-16T11:16:53;101771.88;;;15.87;33.86
61761;BME280;47664;51.660;-0.100;2023-05-16T11:19:31;101769.04;;;16.19;33.64
61761;BME280;47664;51.660;-0.100;2023-05-16T11:22:32;101771.31;;;16.72;33.30
61761;BME280;47664;51.660;-0.100;2023-05-16T11:25:01;101768.71;;;16.70;33.12
61761;BME280;47664;51.660;-0.100;2023-05-16T11:27:30;101765.65;;;15.74;32.47
61761;BME280;47664;51.660;-0.100;2023-05-16T11:30:00;101760.31;;;17.03;32.18
61761;BME280;47664;51.660;-0.100;2023-05-16T11:32:27;101762.26;;;16.53;32.21
61761;BME280;47664;51.660;-0.100;2023-05-16T11:34:55;101759.88;;;17.15;33.64
61761;BME280;47664;51.660;-0.100;2023-05-16T11:37:24;101761.06;;;16.35;32.74
61761;BME280;47664;51.660;-0.100;2023-05-16T11:39:51;101760.63;;;16.20;34.34
61761;BME280;47664;51.660;-0.100;2023-05-16T11:42:19;101758.97;;;16.78;33.74
61761;BME280;47664;51.660;-0.100;2023-05-16T11:44:46;101760.94;;;17.19;34.60
61761;BME280;47664;51.660;-0.100;2023-05-16T11:47:13;101763.24;;;17.01;34.86
61761;BME280;47664;51.660;-0.100;2023-05-16T11:49:40;101769.13;;;16.61;35.67
61761;BME280;47664;51.660;-0.100;2023-05-16T11:52:07;101770.48;;;16.32;35.42
61761;BME280;47664;51.660;-0.100;2023-05-16T11:54:35;101768.81;;;16.18;34.24
61761;BME280;47664;51.660;-0.100;2023-05-16T11:57:02;101765.39;;;16.88;33.33
61761;BME280;47664;51.660;-0.100;2023-05-16T11:59:30;101767.45;;;15.92;34.76
61761;BME280;47664;51.660;-0.100;2023-05-16T12:02:02;101765.17;;;16.06;35.00
61761;BME280;47664;51.660;-0.100;2023-05-16T12:04:30;101763.95;;;15.48;34.96
61761;BME280;47664;51.660;-0.100;2023-05-16T12:06:59;101759.07;;;16.10;33.86
61761;BME280;47664;51.660;-0.100;2023-05-16T12:09:27;101758.22;;;15.47;34.01
61761;BME280;47664;51.660;-0.100;2023-05-16T12:11:55;101756.01;;;16.18;33.61
61761;BME280;47664;51.660;-0.100;2023-05-16T12:14:22;101755.40;;;16.25;34.20
61761;BME280;47664;51.660;-0.100;2023-05-16T12:16:51;101749.29;;;16.70;33.78
61761;BME280;47664;51.660;-0.100;2023-05-16T12:19:20;101747.40;;;16.97;33.69
61761;BME280;47664;51.660;-0.100;2023-05-16T12:21:51;101747.49;;;17.01;33.74
61761;BME280;47664;51.660;-0.100;2023-05-16T12:24:19;101748.90;;;16.70;32.78
61761;BME280;47664;51.660;-0.100;2023-05-16T12:26:46;101744.60;;;16.81;32.11
61761;BME280;47664;51.660;-0.100;2023-05-16T12:29:13;101746.67;;;16.95;33.71
61761;BME280;47664;51.660;-0.100;2023-05-16T12:31:40;101744.15;;;16.58;33.06
61761;BME280;47664;51.660;-0.100;2023-05-16T12:34:16;101742.68;;;17.27;32.43
61761;BME280;47664;51.660;-0.100;2023-05-16T12:36:43;101739.40;;;17.80;32.24
61761;BME280;47664;51.660;-0.100;2023-05-16T12:39:11;101740.60;;;17.99;31.44
61761;BME280;47664;51.660;-0.100;2023-05-16T12:41:40;101747.12;;;17.74;31.85
61761;BME280;47664;51.660;-0.100;2023-05-16T12:44:11;101741.81;;;18.03;31.23
61761;BME280;47664;51.660;-0.100;2023-05-16T12:46:40;101741.35;;;17.20;31.21
61761;BME280;47664;51.660;-0.100;2023-05-16T12:49:07;101746.97;;;17.47;32.32
61761;BME280;47664;51.660;-0.100;2023-05-16T12:51:34;101742.83;;;17.21;30.94